Time;durP1;ratioP1;P1;durP2;ratioP2;P2;SDS_P1;SDS_P2;PMS_P1;PMS_P2;Temp;Humidity;BMP_temperature;BMP_pressure;BME280_temperature;BME280_humidity;BME280_pressure;Samples;Min_cycle;Max_cycle;Signal;HPM_P1;HPM_P2
2023/04/04 00:02:15;;;;;;;5.00;2.38;;;;;;;;;;5071221;28;20020;-74
2023/04/04 00:04:41;;;;;;;5.35;2.50;;;;;;;;;;5071046;28;20489;-75
2023/04/04 00:07:07;;;;;;;6.47;2.28;;;;;;;;;;5070513;28;20445;-74
2023/04/04 00:09:33;;;;;;;3.00;1.98;;;;;;;;;;5070925;28;20024;-75
2023/04/04 00:11:59;;;;;;;7.75;2.78;;;;;;;;;;5071041;28;20382;-75
2023/04/04 00:14:26;;;;;;;3.83;2.30;;;;;;;;;;5069074;28;20032;-75
2023/04/04 00:16:53;;;;;;;5.85;2.63;;;;;;;;;;5070457;28;20448;-75
2023/04/04 00:19:19;;;;;;;3.78;2.10;;;;;;;;;;5069904;28;20027;-76
2023/04/04 00:21:45;;;;;;;7.18;2.65;;;;;;;;;;5070839;28;20116;-76
2023/04/04 00:24:11;;;;;;;5.88;2.78;;;;;;;;;;5069981;28;20386;-74
2023/04/04 00:26:37;;;;;;;7.05;2.35;;;;;;;;;;5071228;28;20105;-75
2023/04/04 00:29:03;;;;;;;8.45;2.75;;;;;;;;;;5078316;28;20024;-75
2023/04/04 00:31:29;;;;;;;5.15;2.50;;;;;;;;;;5072959;28;20073;-76
2023/04/04 00:33:55;;;;;;;7.53;2.38;;;;;;;;;;5090774;28;20048;-75
2023/04/04 00:36:22;;;;;;;3.70;2.35;;;;;;;;;;5091107;28;20553;-75
2023/04/04 00:38:48;;;;;;;6.50;2.35;;;;;;;;;;5090173;28;20217;-75
2023/04/04 00:41:14;;;;;;;6.68;2.72;;;;;;;;;;5086327;28;20107;-76
2023/04/04 00:43:41;;;;;;;3.55;2.30;;;;;;;;;;5071817;28;20035;-75
2023/04/04 00:46:07;;;;;;;6.10;3.03;;;;;;;;;;5070735;28;20470;-75
2023/04/04 00:48:34;;;;;;;7.43;2.75;;;;;;;;;;5069950;28;20471;-75
2023/04/04 00:51:00;;;;;;;5.07;2.25;;;;;;;;;;5070797;28;20025;-75
2023/04/04 00:53:26;;;;;;;5.28;2.38;;;;;;;;;;5052555;28;20551;-74
2023/04/04 00:55:52;;;;;;;4.85;2.10;;;;;;;;;;5070736;28;20056;-74
2023/04/04 00:58:18;;;;;;;4.90;2.70;;;;;;;;;;5053464;28;20021;-75
2023/04/04 01:00:45;;;;;;;5.70;2.35;;;;;;;;;;5072815;28;20020;-73
2023/04/04 01:03:11;;;;;;;6.18;2.40;;;;;;;;;;5072819;28;20051;-75
2023/04/04 01:05:38;;;;;;;6.28;2.40;;;;;;;;;;5072487;28;20437;-74
2023/04/04 01:08:04;;;;;;;7.20;2.58;;;;;;;;;;5089521;28;20469;-74
2023/04/04 01:10:31;;;;;;;5.45;2.47;;;;;;;;;;5090257;28;20020;-74
2023/04/04 01:12:57;;;;;;;4.80;2.30;;;;;;;;;;5090424;28;20560;-74
2023/04/04 01:15:23;;;;;;;7.40;2.30;;;;;;;;;;5090100;28;20107;-75
2023/04/04 01:17:50;;;;;;;5.53;2.40;;;;;;;;;;5089575;28;20111;-75
2023/04/04 01:20:19;;;;;;;4.63;2.50;;;;;;;;;;5082394;28;20456;-75
2023/04/04 01:22:47;;;;;;;5.00;1.85;;;;;;;;;;5069451;28;20027;-75
2023/04/04 01:25:14;;;;;;;8.25;3.00;;;;;;;;;;5052089;28;20371;-75
2023/04/04 01:27:40;;;;;;;5.40;2.53;;;;;;;;;;5069856;28;20112;-74
2023/04/04 01:30:07;;;;;;;3.58;2.35;;;;;;;;;;5069667;28;20029;-75
2023/04/04 01:32:36;;;;;;;6.00;2.63;;;;;;;;;;5070922;28;20083;-75
2023/04/04 01:35:05;;;;;;;5.60;2.60;;;;;;;;;;5053377;28;20024;-75
2023/04/04 01:37:57;;;;;;;5.82;2.25;;;;;;;;;;5072963;28;20021;-76
2023/04/04 01:40:28;;;;;;;5.45;2.20;;;;;;;;;;5070690;28;20490;-74
2023/04/04 01:42:55;;;;;;;4.88;2.17;;;;;;;;;;5073820;28;20032;-75
2023/04/04 01:45:24;;;;;;;5.75;2.50;;;;;;;;;;5073652;28;20029;-75
2023/04/04 01:47:50;;;;;;;7.82;2.35;;;;;;;;;;5071821;28;20414;-75
2023/04/04 01:50:16;;;;;;;5.40;3.05;;;;;;;;;;5053719;28;20028;-75
2023/04/04 01:52:42;;;;;;;5.90;2.75;;;;;;;;;;5068955;28;20387;-76
2023/04/04 01:55:09;;;;;;;8.93;2.88;;;;;;;;;;5070839;28;20379;-75
2023/04/04 01:57:35;;;;;;;10.88;2.60;;;;;;;;;;5070342;28;20135;-74
2023/04/04 02:00:01;;;;;;;4.70;2.03;;;;;;;;;;5086652;28;20024;-74
2023/04/04 02:02:27;;;;;;;8.35;2.95;;;;;;;;;;5093098;28;20554;-74
2023/04/04 02:04:54;;;;;;;6.22;2.70;;;;;;;;;;5065073;28;20170;-74
2023/04/04 02:07:20;;;;;;;9.30;2.85;;;;;;;;;;5072754;28;20145;-75
2023/04/04 02:09:46;;;;;;;4.05;1.88;;;;;;;;;;5073425;28;20575;-75
2023/04/04 02:12:12;;;;;;;5.05;2.28;;;;;;;;;;5073428;28;20021;-75
2023/04/04 02:14:38;;;;;;;9.00;3.03;;;;;;;;;;5073328;28;20036;-75
2023/04/04 02:17:04;;;;;;;4.78;2.15;;;;;;;;;;5072701;28;20017;-73
2023/04/04 02:19:31;;;;;;;5.93;2.80;;;;;;;;;;5073089;28;20551;-74
2023/04/04 02:21:57;;;;;;;5.32;2.67;;;;;;;;;;5073413;28;20044;-74
2023/04/04 02:24:22;;;;;;;7.78;3.05;;;;;;;;;;5072989;28;20048;-74
2023/04/04 02:26:49;;;;;;;4.50;2.20;;;;;;;;;;5072951;28;20115;-75
2023/04/04 02:29:15;;;;;;;6.38;3.00;;;;;;;;;;5080479;28;20085;-74
2023/04/04 02:31:41;;;;;;;6.95;2.60;;;;;;;;;;5093095;28;20028;-74
2023/04/04 02:34:07;;;;;;;8.57;2.40;;;;;;;;;;5092891;28;20481;-74
2023/04/04 02:36:34;;;;;;;7.35;2.63;;;;;;;;;;5074793;28;20123;-75
2023/04/04 02:39:01;;;;;;;5.25;2.20;;;;;;;;;;5092157;28;20025;-75
2023/04/04 02:41:27;;;;;;;5.82;2.72;;;;;;;;;;5092907;28;20020;-75
2023/04/04 02:43:54;;;;;;;7.97;3.28;;;;;;;;;;5092814;28;20027;-75
2023/04/04 02:46:20;;;;;;;5.68;2.13;;;;;;;;;;5074303;28;20024;-73
2023/04/04 02:48:45;;;;;;;8.95;2.72;;;;;;;;;;5092008;28;20069;-75
2023/04/04 02:51:11;;;;;;;6.90;2.47;;;;;;;;;;5074537;28;20482;-74
2023/04/04 02:53:37;;;;;;;7.10;2.70;;;;;;;;;;5092689;28;20044;-75
2023/04/04 02:56:04;;;;;;;6.10;2.65;;;;;;;;;;5092684;28;20016;-75
2023/04/04 02:58:33;;;;;;;5.65;2.95;;;;;;;;;;5091448;28;20024;-75
2023/04/04 03:00:59;;;;;;;7.32;2.65;;;;;;;;;;5092816;28;20020;-74
2023/04/04 03:03:25;;;;;;;6.10;3.00;;;;;;;;;;5078685;28;20479;-74
2023/04/04 03:05:51;;;;;;;8.45;2.88;;;;;;;;;;5054321;28;20511;-74
2023/04/04 03:08:17;;;;;;;8.07;2.67;;;;;;;;;;5071426;28;20048;-75
2023/04/04 03:10:44;;;;;;;5.35;2.90;;;;;;;;;;5071535;28;20033;-75
2023/04/04 03:13:10;;;;;;;4.10;2.80;;;;;;;;;;5071484;28;20039;-75
2023/04/04 03:15:36;;;;;;;6.80;2.42;;;;;;;;;;5071533;28;20033;-75
2023/04/04 03:18:02;;;;;;;10.38;3.17;;;;;;;;;;5070802;28;20038;-75
2023/04/04 03:20:28;;;;;;;8.18;3.35;;;;;;;;;;5053603;28;20031;-75
2023/04/04 03:22:55;;;;;;;9.70;3.25;;;;;;;;;;5070892;28;20435;-76
2023/04/04 03:25:21;;;;;;;7.18;3.20;;;;;;;;;;5069195;28;20028;-72
2023/04/04 03:27:47;;;;;;;10.20;3.08;;;;;;;;;;5070328;28;20135;-74
2023/04/04 03:30:13;;;;;;;8.13;3.40;;;;;;;;;;5076135;28;20107;-74
2023/04/04 03:32:39;;;;;;;7.38;3.33;;;;;;;;;;5071508;28;20537;-75
2023/04/04 03:35:08;;;;;;;7.82;3.55;;;;;;;;;;5071283;28;20064;-75
2023/04/04 03:37:34;;;;;;;8.23;3.28;;;;;;;;;;5071115;28;20052;-75
2023/04/04 03:40:01;;;;;;;8.70;3.30;;;;;;;;;;5071118;28;20052;-75
2023/04/04 03:42:27;;;;;;;7.97;2.83;;;;;;;;;;5072928;28;20051;-75
2023/04/04 03:44:53;;;;;;;7.22;2.92;;;;;;;;;;5071862;28;20107;-76
2023/04/04 03:47:19;;;;;;;8.13;2.85;;;;;;;;;;5069243;28;20506;-75
2023/04/04 03:49:45;;;;;;;4.60;2.80;;;;;;;;;;5071471;28;20017;-75
2023/04/04 03:52:11;;;;;;;8.23;3.00;;;;;;;;;;5071121;28;20016;-75
2023/04/04 03:54:38;;;;;;;8.82;2.63;;;;;;;;;;5071019;28;20440;-75
2023/04/04 03:57:04;;;;;;;8.30;2.50;;;;;;;;;;5065929;28;20120;-74
2023/04/04 03:59:30;;;;;;;6.45;2.60;;;;;;;;;;5068530;28;20033;-75
2023/04/04 04:01:56;;;;;;;9.60;3.08;;;;;;;;;;5069244;28;20425;-75
2023/04/04 04:04:22;;;;;;;5.82;2.67;;;;;;;;;;5069191;28;20036;-74
2023/04/04 04:06:48;;;;;;;8.48;2.95;;;;;;;;;;5069348;28;20039;-74
2023/04/04 04:09:15;;;;;;;6.13;2.67;;;;;;;;;;5068074;28;20496;-74
2023/04/04 04:11:41;;;;;;;9.93;3.33;;;;;;;;;;5069240;28;20451;-75
2023/04/04 04:14:07;;;;;;;5.72;2.78;;;;;;;;;;5053010;28;20036;-75
2023/04/04 04:16:33;;;;;;;7.32;3.72;;;;;;;;;;5053082;28;20032;-76
2023/04/04 04:19:00;;;;;;;8.05;3.20;;;;;;;;;;5070312;28;20171;-75
2023/04/04 04:21:26;;;;;;;6.78;3.20;;;;;;;;;;5052804;28;20481;-75
2023/04/04 04:23:52;;;;;;;8.10;3.13;;;;;;;;;;5070971;28;20043;-75
2023/04/04 04:26:18;;;;;;;10.48;3.35;;;;;;;;;;5071103;28;20024;-75
2023/04/04 04:28:47;;;;;;;7.55;3.22;;;;;;;;;;5070287;28;20024;-76
2023/04/04 04:31:13;;;;;;;8.43;3.25;;;;;;;;;;5070333;28;20455;-75
2023/04/04 04:33:39;;;;;;;9.80;3.80;;;;;;;;;;5071178;28;20087;-75
2023/04/04 04:36:05;;;;;;;7.90;3.80;;;;;;;;;;5070904;28;20425;-75
2023/04/04 04:38:32;;;;;;;9.52;3.85;;;;;;;;;;5069994;28;20035;-75
2023/04/04 04:40:58;;;;;;;8.48;2.90;;;;;;;;;;5071071;28;20020;-75
2023/04/04 04:43:24;;;;;;;8.73;3.90;;;;;;;;;;5052622;28;20116;-75
2023/04/04 04:45:50;;;;;;;11.43;3.63;;;;;;;;;;5071195;28;20325;-75
2023/04/04 04:48:17;;;;;;;6.18;2.88;;;;;;;;;;5069801;28;20029;-76
2023/04/04 04:50:46;;;;;;;7.65;3.00;;;;;;;;;;5070961;28;20024;-75
2023/04/04 04:53:12;;;;;;;6.82;3.05;;;;;;;;;;5070966;28;20029;-75
2023/04/04 04:55:38;;;;;;;5.30;2.67;;;;;;;;;;5052624;28;20017;-75
2023/04/04 04:58:05;;;;;;;7.40;2.90;;;;;;;;;;5069613;28;20031;-76
2023/04/04 05:00:31;;;;;;;10.85;2.85;;;;;;;;;;5070378;28;20025;-76
2023/04/04 05:02:59;;;;;;;11.75;3.00;;;;;;;;;;5070765;28;20029;-76
2023/04/04 05:05:25;;;;;;;6.55;2.58;;;;;;;;;;5052426;28;20032;-74
2023/04/04 05:07:51;;;;;;;8.90;3.50;;;;;;;;;;5070008;28;20032;-74
2023/04/04 05:10:17;;;;;;;8.75;3.40;;;;;;;;;;5055655;28;20040;-74
2023/04/04 05:12:43;;;;;;;6.03;2.95;;;;;;;;;;5074161;28;20039;-74
2023/04/04 05:15:10;;;;;;;10.85;3.60;;;;;;;;;;5074062;28;20029;-74
2023/04/04 05:17:37;;;;;;;11.50;3.00;;;;;;;;;;5073958;28;20028;-75
2023/04/04 05:20:03;;;;;;;9.90;3.13;;;;;;;;;;5088644;28;20508;-76
2023/04/04 05:22:29;;;;;;;8.10;3.22;;;;;;;;;;5073063;28;20029;-75
2023/04/04 05:24:55;;;;;;;6.45;3.17;;;;;;;;;;5073337;28;20050;-75
2023/04/04 05:27:21;;;;;;;8.75;3.45;;;;;;;;;;5056075;28;20108;-75
2023/04/04 05:29:47;;;;;;;9.77;3.35;;;;;;;;;;5055556;28;20028;-74
2023/04/04 05:32:14;;;;;;;7.57;2.85;;;;;;;;;;5073874;28;20028;-74
2023/04/04 05:34:41;;;;;;;11.15;3.58;;;;;;;;;;5074748;28;20032;-75
2023/04/04 05:37:07;;;;;;;6.45;2.95;;;;;;;;;;5072978;28;20025;-73
2023/04/04 05:39:33;;;;;;;6.18;3.35;;;;;;;;;;5073515;28;20025;-74
2023/04/04 05:41:59;;;;;;;8.52;2.72;;;;;;;;;;5073271;28;20359;-74
2023/04/04 05:44:25;;;;;;;7.13;2.80;;;;;;;;;;5073560;28;20104;-75
2023/04/04 05:46:51;;;;;;;6.38;2.70;;;;;;;;;;5073581;28;20154;-74
2023/04/04 05:49:17;;;;;;;10.18;3.58;;;;;;;;;;5072537;28;20496;-75
2023/04/04 05:51:43;;;;;;;10.65;3.10;;;;;;;;;;5073416;28;20073;-74
2023/04/04 05:54:09;;;;;;;6.45;2.97;;;;;;;;;;5071003;28;20035;-75
2023/04/04 05:56:35;;;;;;;11.80;2.75;;;;;;;;;;5065814;28;20025;-75
2023/04/04 05:59:01;;;;;;;7.43;2.97;;;;;;;;;;5072252;28;20036;-73
2023/04/04 06:01:28;;;;;;;7.82;3.00;;;;;;;;;;5072989;28;20397;-74
2023/04/04 06:03:55;;;;;;;8.90;2.97;;;;;;;;;;5072832;28;20106;-75
2023/04/04 06:06:21;;;;;;;9.15;2.95;;;;;;;;;;5070643;28;20035;-75
2023/04/04 06:08:47;;;;;;;6.63;2.80;;;;;;;;;;5071910;28;20096;-74
2023/04/04 06:11:13;;;;;;;5.40;2.70;;;;;;;;;;5073075;28;20048;-74
2023/04/04 06:13:39;;;;;;;9.93;2.63;;;;;;;;;;5072568;28;20484;-74
2023/04/04 06:16:05;;;;;;;8.63;2.78;;;;;;;;;;5071676;28;20103;-75
2023/04/04 06:18:31;;;;;;;7.20;2.97;;;;;;;;;;5071880;28;20024;-74
2023/04/04 06:20:57;;;;;;;14.70;3.40;;;;;;;;;;5072422;28;20036;-75
2023/04/04 06:23:23;;;;;;;12.30;3.97;;;;;;;;;;5073043;28;20021;-74
2023/04/04 06:25:50;;;;;;;6.15;3.13;;;;;;;;;;5072744;28;20425;-74
2023/04/04 06:28:16;;;;;;;7.25;3.13;;;;;;;;;;5072239;28;20051;-72
2023/04/04 06:30:43;;;;;;;7.82;3.00;;;;;;;;;;5073105;28;20116;-75
2023/04/04 06:33:09;;;;;;;6.93;2.95;;;;;;;;;;5073170;28;20025;-73
2023/04/04 06:35:36;;;;;;;6.13;2.95;;;;;;;;;;5072392;28;20039;-71
2023/04/04 06:38:03;;;;;;;6.35;2.95;;;;;;;;;;5071732;28;20111;-72
2023/04/04 06:40:29;;;;;;;5.63;3.10;;;;;;;;;;5054304;28;20017;-71
2023/04/04 06:42:57;;;;;;;5.50;2.65;;;;;;;;;;5072207;28;20048;-73
2023/04/04 06:45:23;;;;;;;7.70;3.75;;;;;;;;;;5071906;28;20047;-72
2023/04/04 06:47:52;;;;;;;6.07;3.05;;;;;;;;;;5071491;28;20032;-71
2023/04/04 06:50:18;;;;;;;10.13;3.10;;;;;;;;;;5070679;28;20131;-72
2023/04/04 06:52:44;;;;;;;10.77;3.72;;;;;;;;;;5070096;28;20490;-72
2023/04/04 06:55:10;;;;;;;5.78;2.72;;;;;;;;;;5070043;28;20401;-72
2023/04/04 06:57:37;;;;;;;11.48;3.33;;;;;;;;;;5068180;28;20115;-72
2023/04/04 07:00:03;;;;;;;7.72;2.85;;;;;;;;;;5070160;28;20454;-72
2023/04/04 07:02:30;;;;;;;6.47;3.00;;;;;;;;;;5070728;28;20102;-72
2023/04/04 07:04:56;;;;;;;7.70;3.70;;;;;;;;;;5071693;28;20027;-71
2023/04/04 07:07:22;;;;;;;6.68;2.97;;;;;;;;;;5071078;28;20021;-72
2023/04/04 07:09:48;;;;;;;5.88;3.25;;;;;;;;;;5071674;28;20029;-72
2023/04/04 07:12:14;;;;;;;8.15;3.05;;;;;;;;;;5072028;28;20013;-73
2023/04/04 07:14:40;;;;;;;9.52;4.35;;;;;;;;;;5071346;28;20108;-72
2023/04/04 07:17:06;;;;;;;7.63;2.80;;;;;;;;;;5071517;28;20040;-71
2023/04/04 07:19:32;;;;;;;6.32;3.03;;;;;;;;;;5071275;28;20029;-71
2023/04/04 07:21:58;;;;;;;6.45;3.42;;;;;;;;;;5071317;28;20027;-72
2023/04/04 07:24:24;;;;;;;6.40;3.00;;;;;;;;;;5069668;28;20482;-70
2023/04/04 07:26:50;;;;;;;8.48;3.28;;;;;;;;;;5070010;28;20032;-72
2023/04/04 07:29:16;;;;;;;7.88;3.15;;;;;;;;;;5070584;28;20372;-73
2023/04/04 07:31:43;;;;;;;6.35;3.38;;;;;;;;;;5071213;28;20033;-74
2023/04/04 07:34:09;;;;;;;5.45;2.47;;;;;;;;;;5071473;28;20048;-75
2023/04/04 07:36:35;;;;;;;6.13;3.25;;;;;;;;;;5071521;28;20406;-72
2023/04/04 07:39:01;;;;;;;8.30;3.30;;;;;;;;;;5070640;28;20017;-73
2023/04/04 07:41:27;;;;;;;6.63;3.05;;;;;;;;;;5071620;28;20359;-73
2023/04/04 07:43:53;;;;;;;6.85;3.10;;;;;;;;;;5071254;28;20115;-72
2023/04/04 07:46:19;;;;;;;5.75;2.50;;;;;;;;;;5071374;28;20117;-74
2023/04/04 07:48:45;;;;;;;5.38;2.70;;;;;;;;;;5070651;28;20025;-74
2023/04/04 07:51:12;;;;;;;4.65;2.50;;;;;;;;;;5053389;28;20028;-72
2023/04/04 07:53:38;;;;;;;12.57;3.25;;;;;;;;;;5071348;28;20033;-73
2023/04/04 07:56:07;;;;;;;8.63;2.60;;;;;;;;;;5071134;28;20043;-71
2023/04/04 07:58:33;;;;;;;7.70;2.92;;;;;;;;;;5067995;28;20032;-72
2023/04/04 08:01:02;;;;;;;7.50;3.15;;;;;;;;;;5071433;28;20034;-72
2023/04/04 08:03:29;;;;;;;10.00;2.97;;;;;;;;;;5071102;28;20027;-73
2023/04/04 08:05:55;;;;;;;7.45;2.15;;;;;;;;;;5071105;28;20031;-72
2023/04/04 08:08:21;;;;;;;6.88;2.47;;;;;;;;;;5052449;28;20085;-72
2023/04/04 08:10:48;;;;;;;8.65;2.45;;;;;;;;;;5069302;28;20695;-73
2023/04/04 08:13:14;;;;;;;7.22;3.08;;;;;;;;;;5070733;28;20056;-73
2023/04/04 08:15:40;;;;;;;9.38;2.53;;;;;;;;;;5070700;28;20021;-72
2023/04/04 08:18:07;;;;;;;6.60;2.13;;;;;;;;;;5069983;28;20450;-72
2023/04/04 08:20:34;;;;;;;6.38;2.33;;;;;;;;;;5068900;28;20030;-71
2023/04/04 08:23:00;;;;;;;4.97;2.30;;;;;;;;;;5069023;28;20433;-73
2023/04/04 08:25:26;;;;;;;3.50;1.80;;;;;;;;;;5068965;28;20060;-72
2023/04/04 08:27:52;;;;;;;6.25;2.00;;;;;;;;;;5068295;28;20016;-72
2023/04/04 08:30:21;;;;;;;5.25;1.70;;;;;;;;;;5069173;28;20078;-71
2023/04/04 08:32:47;;;;;;;4.85;1.67;;;;;;;;;;5069603;28;20040;-72
2023/04/04 08:35:13;;;;;;;7.43;2.28;;;;;;;;;;5070733;28;20033;-71
2023/04/04 08:37:44;;;;;;;2.92;1.63;;;;;;;;;;5070509;28;20027;-71
2023/04/04 08:40:10;;;;;;;3.88;2.72;;;;;;;;;;5070549;28;20024;-71
2023/04/04 08:42:38;;;;;;;2.58;1.65;;;;;;;;;;5070923;28;20024;-73
2023/04/04 08:45:04;;;;;;;5.35;1.90;;;;;;;;;;5074258;28;20099;-73
2023/04/04 08:47:35;;;;;;;4.45;1.70;;;;;;;;;;5073958;28;20567;-72
2023/04/04 08:50:04;;;;;;;3.67;1.65;;;;;;;;;;5075189;28;20017;-73
2023/04/04 08:52:31;;;;;;;3.17;1.65;;;;;;;;;;5074805;28;20024;-72
2023/04/04 08:54:57;;;;;;;4.90;1.83;;;;;;;;;;5074132;28;20443;-73
2023/04/04 08:57:24;;;;;;;3.95;1.60;;;;;;;;;;5074015;28;20548;-73
2023/04/04 08:59:50;;;;;;;3.15;1.00;;;;;;;;;;5074810;28;20390;-73
2023/04/04 09:02:16;;;;;;;2.88;1.40;;;;;;;;;;5075011;28;20096;-72
2023/04/04 09:04:43;;;;;;;3.60;1.67;;;;;;;;;;5075085;28;20020;-73
2023/04/04 09:07:10;;;;;;;5.97;1.55;;;;;;;;;;5074938;28;20020;-72
2023/04/04 09:09:37;;;;;;;3.95;1.67;;;;;;;;;;5074279;28;20376;-73
2023/04/04 09:12:04;;;;;;;3.80;1.42;;;;;;;;;;5055458;28;20032;-74
2023/04/04 09:14:30;;;;;;;3.08;1.48;;;;;;;;;;5072646;28;20045;-74
2023/04/04 09:16:57;;;;;;;2.78;0.98;;;;;;;;;;5073213;28;20425;-72
2023/04/04 09:19:23;;;;;;;3.92;1.48;;;;;;;;;;5073492;28;20036;-73
2023/04/04 09:21:49;;;;;;;5.25;1.67;;;;;;;;;;5073582;28;20017;-74
2023/04/04 09:24:16;;;;;;;3.83;1.55;;;;;;;;;;5073931;28;20445;-74
2023/04/04 09:26:50;;;;;;;4.10;1.60;;;;;;;;;;5056512;28;20062;-74
2023/04/04 09:29:23;;;;;;;2.83;1.60;;;;;;;;;;5073482;28;20366;-74
2023/04/04 09:31:50;;;;;;;3.55;1.15;;;;;;;;;;5056153;28;20028;-74
2023/04/04 09:34:18;;;;;;;3.20;1.60;;;;;;;;;;5074223;28;20506;-73
2023/04/04 09:36:44;;;;;;;1.95;1.15;;;;;;;;;;5074080;28;20032;-73
2023/04/04 09:39:11;;;;;;;2.63;2.10;;;;;;;;;;5073305;28;20509;-73
2023/04/04 09:41:41;;;;;;;3.75;1.38;;;;;;;;;;5074153;28;20431;-73
2023/04/04 09:44:07;;;;;;;2.28;1.38;;;;;;;;;;5075160;28;20028;-74
2023/04/04 09:46:35;;;;;;;4.35;1.48;;;;;;;;;;5074871;28;20077;-73
2023/04/04 09:49:01;;;;;;;2.85;1.55;;;;;;;;;;5055165;28;20020;-72
2023/04/04 09:51:41;;;;;;;2.45;1.42;;;;;;;;;;5073534;28;20059;-73
2023/04/04 09:54:10;;;;;;;2.85;1.48;;;;;;;;;;5073214;28;20024;-72
2023/04/04 09:56:42;;;;;;;3.10;1.40;;;;;;;;;;5072743;28;20029;-72
2023/04/04 09:59:08;;;;;;;10.18;1.35;;;;;;;;;;5072462;28;20071;-73
2023/04/04 10:01:34;;;;;;;3.50;1.15;;;;;;;;;;5073805;28;20020;-73
2023/04/04 10:04:00;;;;;;;2.85;1.27;;;;;;;;;;5073569;28;20029;-73
2023/04/04 10:06:26;;;;;;;2.00;1.00;;;;;;;;;;5073228;28;20482;-74
2023/04/04 10:08:53;;;;;;;2.60;1.13;;;;;;;;;;5054561;28;20117;-73
2023/04/04 10:11:32;;;;;;;3.95;1.10;;;;;;;;;;5073315;28;20044;-74
2023/04/04 10:13:59;;;;;;;3.35;1.65;;;;;;;;;;5073377;28;20111;-73
2023/04/04 10:16:25;;;;;;;2.50;0.90;;;;;;;;;;5072950;28;20024;-73
2023/04/04 10:18:52;;;;;;;2.78;1.10;;;;;;;;;;5054329;28;20032;-75
2023/04/04 10:21:18;;;;;;;4.90;1.27;;;;;;;;;;5073452;28;20172;-74
2023/04/04 10:23:48;;;;;;;4.15;1.40;;;;;;;;;;5073290;28;20036;-74
2023/04/04 10:26:14;;;;;;;2.95;1.40;;;;;;;;;;5072838;28;20036;-72
2023/04/04 10:28:42;;;;;;;1.17;0.90;;;;;;;;;;5072243;28;20056;-72
2023/04/04 10:31:24;;;;;;;2.08;1.05;;;;;;;;;;5072906;28;20048;-73
2023/04/04 10:33:50;;;;;;;2.70;1.10;;;;;;;;;;5073246;28;20082;-72
2023/04/04 10:36:20;;;;;;;2.38;1.05;;;;;;;;;;5072670;28;20448;-72
2023/04/04 10:38:51;;;;;;;2.15;1.40;;;;;;;;;;5071490;28;20027;-73
2023/04/04 10:41:18;;;;;;;2.75;1.02;;;;;;;;;;5072582;28;20016;-74
2023/04/04 10:43:45;;;;;;;2.53;1.02;;;;;;;;;;5072588;28;20024;-74
2023/04/04 10:46:13;;;;;;;2.20;1.23;;;;;;;;;;5072238;28;20028;-74
2023/04/04 10:48:40;;;;;;;0.90;0.80;;;;;;;;;;5071850;28;20149;-73
2023/04/04 10:51:07;;;;;;;4.57;1.77;;;;;;;;;;5072230;28;20057;-72
2023/04/04 10:53:34;;;;;;;1.80;0.95;;;;;;;;;;5071892;28;20028;-72
2023/04/04 10:56:01;;;;;;;3.80;1.35;;;;;;;;;;5083982;28;20031;-73
2023/04/04 10:58:28;;;;;;;4.75;2.67;;;;;;;;;;5073331;28;20027;-72
2023/04/04 11:00:55;;;;;;;3.33;1.83;;;;;;;;;;5091859;28;20016;-74
2023/04/04 11:03:21;;;;;;;2.25;1.10;;;;;;;;;;5092418;28;20111;-73
2023/04/04 11:05:50;;;;;;;1.38;0.80;;;;;;;;;;5082787;28;20024;-73
2023/04/04 11:08:24;;;;;;;3.78;1.48;;;;;;;;;;5067504;28;20025;-73
2023/04/04 11:10:53;;;;;;;3.03;1.85;;;;;;;;;;5057959;28;20082;-73
2023/04/04 11:13:26;;;;;;;5.88;1.60;;;;;;;;;;5071074;28;20020;-73
2023/04/04 11:15:56;;;;;;;6.70;2.00;;;;;;;;;;5076001;28;20455;-74
2023/04/04 11:18:42;;;;;;;2.88;1.38;;;;;;;;;;5070782;28;20066;-73
2023/04/04 11:21:10;;;;;;;7.97;1.90;;;;;;;;;;5071726;28;20032;-73
2023/04/04 11:23:48;;;;;;;1.95;1.13;;;;;;;;;;5071162;28;20125;-73
2023/04/04 11:26:26;;;;;;;4.00;1.30;;;;;;;;;;5072185;28;20063;-73
2023/04/04 11:28:55;;;;;;;1.88;1.45;;;;;;;;;;5071515;28;20657;-72
2023/04/04 11:31:23;;;;;;;1.85;1.27;;;;;;;;;;5071451;28;20020;-73
2023/04/04 11:34:08;;;;;;;3.75;1.25;;;;;;;;;;5071642;28;20032;-74
2023/04/04 11:36:37;;;;;;;3.53;1.48;;;;;;;;;;5006311;22;20396;-72
2023/04/04 11:39:29;;;;;;;4.78;1.60;;;;;;;;;;4987367;28;20030;-72
2023/04/04 11:41:56;;;;;;;1.58;1.05;;;;;;;;;;4989549;28;20042;-73
2023/04/04 11:44:23;;;;;;;2.17;1.35;;;;;;;;;;4987109;28;20064;-73
2023/04/04 11:46:54;;;;;;;4.38;1.38;;;;;;;;;;4988662;28;20058;-74
2023/04/04 11:49:24;;;;;;;1.90;1.15;;;;;;;;;;4988271;28;20034;-73
2023/04/04 11:51:51;;;;;;;1.35;1.05;;;;;;;;;;4970390;28;20129;-72
2023/04/04 11:54:17;;;;;;;2.90;1.65;;;;;;;;;;4972179;28;20138;-73
2023/04/04 11:56:44;;;;;;;5.43;2.15;;;;;;;;;;4971026;28;20034;-75
2023/04/04 11:59:11;;;;;;;7.70;1.92;;;;;;;;;;4987457;28;20018;-73
2023/04/04 12:01:38;;;;;;;6.60;1.50;;;;;;;;;;4987943;28;20029;-74
2023/04/04 12:04:04;;;;;;;2.05;1.40;;;;;;;;;;4987807;28;20042;-74
2023/04/04 12:06:31;;;;;;;5.97;1.90;;;;;;;;;;4988423;28;20030;-74
2023/04/04 12:08:58;;;;;;;2.53;1.42;;;;;;;;;;4987488;28;20038;-73
2023/04/04 12:11:26;;;;;;;2.97;1.45;;;;;;;;;;4989614;28;20037;-73
2023/04/04 12:13:52;;;;;;;3.67;1.30;;;;;;;;;;4989487;28;20058;-71
2023/04/04 12:16:18;;;;;;;2.58;1.30;;;;;;;;;;4989712;28;20034;-77
2023/04/04 12:18:45;;;;;;;2.33;1.50;;;;;;;;;;4988084;28;20033;-73
2023/04/04 12:21:11;;;;;;;4.25;1.33;;;;;;;;;;4989625;28;20095;-74
2023/04/04 12:23:37;;;;;;;2.85;1.30;;;;;;;;;;4989748;28;20029;-72
2023/04/04 12:26:04;;;;;;;4.20;1.40;;;;;;;;;;4989414;28;20026;-73
2023/04/04 12:28:33;;;;;;;3.13;1.10;;;;;;;;;;4989017;28;20034;-74
2023/04/04 12:31:04;;;;;;;2.90;1.55;;;;;;;;;;4989036;28;20038;-74
2023/04/04 12:33:32;;;;;;;3.28;1.38;;;;;;;;;;4988808;28;20038;-73
2023/04/04 12:35:59;;;;;;;5.03;1.30;;;;;;;;;;4984670;28;20039;-75
2023/04/04 12:38:31;;;;;;;3.15;0.98;;;;;;;;;;4983711;28;20111;-73
2023/04/04 12:40:57;;;;;;;3.40;1.13;;;;;;;;;;4972005;28;20030;-74
2023/04/04 12:43:26;;;;;;;2.00;1.00;;;;;;;;;;4986537;28;20018;-73
2023/04/04 12:45:53;;;;;;;5.28;1.75;;;;;;;;;;4988474;28;20391;-73
2023/04/04 12:48:25;;;;;;;3.17;1.40;;;;;;;;;;4988296;28;20111;-72
2023/04/04 12:50:58;;;;;;;3.65;1.50;;;;;;;;;;4971675;28;20087;-72
2023/04/04 12:53:28;;;;;;;2.80;1.10;;;;;;;;;;4989094;28;20030;-73
2023/04/04 12:55:55;;;;;;;4.45;1.33;;;;;;;;;;4988840;28;20038;-76
2023/04/04 12:58:22;;;;;;;5.35;1.50;;;;;;;;;;4979283;28;20404;-74
2023/04/04 13:00:52;;;;;;;3.33;1.50;;;;;;;;;;4964899;28;20027;-74
2023/04/04 13:03:20;;;;;;;4.65;1.42;;;;;;;;;;4988921;28;20031;-74
2023/04/04 13:05:46;;;;;;;1.38;1.02;;;;;;;;;;4989031;28;20031;-73
2023/04/04 13:08:12;;;;;;;2.15;1.17;;;;;;;;;;4988310;28;20042;-73
2023/04/04 13:10:57;;;;;;;4.88;1.65;;;;;;;;;;4988854;28;20030;-74
2023/04/04 13:13:34;;;;;;;4.65;1.50;;;;;;;;;;4989260;28;20093;-74
2023/04/04 13:16:00;;;;;;;3.15;1.60;;;;;;;;;;4988980;28;20050;-75
2023/04/04 13:18:31;;;;;;;2.25;1.38;;;;;;;;;;4988281;28;20023;-74
2023/04/04 13:20:57;;;;;;;4.22;1.38;;;;;;;;;;4988980;28;20023;-73
2023/04/04 13:23:24;;;;;;;8.27;1.60;;;;;;;;;;4988802;28;20023;-74
2023/04/04 13:25:50;;;;;;;1.38;1.25;;;;;;;;;;4971788;28;20359;-75
2023/04/04 13:28:16;;;;;;;3.47;1.50;;;;;;;;;;4970608;28;20026;-74
2023/04/04 13:30:47;;;;;;;2.20;1.10;;;;;;;;;;4989264;28;20026;-75
2023/04/04 13:33:13;;;;;;;1.80;1.25;;;;;;;;;;4991948;28;20041;-72
2023/04/04 13:35:39;;;;;;;2.78;1.15;;;;;;;;;;4991573;28;20031;-73
2023/04/04 13:38:06;;;;;;;3.63;1.38;;;;;;;;;;4973535;28;20027;-72
2023/04/04 13:40:32;;;;;;;1.55;0.90;;;;;;;;;;4991946;28;20030;-73
2023/04/04 13:42:58;;;;;;;7.75;1.67;;;;;;;;;;4991551;28;20032;-73
2023/04/04 13:45:24;;;;;;;2.45;1.52;;;;;;;;;;4991358;28;20026;-74
2023/04/04 13:47:50;;;;;;;6.43;1.52;;;;;;;;;;4990930;28;20027;-74
2023/04/04 13:50:17;;;;;;;4.00;1.35;;;;;;;;;;4991296;28;20680;-73
2023/04/04 13:52:43;;;;;;;3.83;1.30;;;;;;;;;;4978146;28;20504;-72
2023/04/04 13:55:10;;;;;;;3.33;1.27;;;;;;;;;;4971725;28;20035;-74
2023/04/04 13:57:36;;;;;;;2.40;1.02;;;;;;;;;;4971621;28;20035;-73
2023/04/04 14:00:04;;;;;;;3.58;1.50;;;;;;;;;;4972652;28;20406;-73
2023/04/04 14:02:30;;;;;;;4.10;1.23;;;;;;;;;;4972316;28;20484;-74
2023/04/04 14:04:56;;;;;;;2.33;0.80;;;;;;;;;;4972021;28;20098;-74
2023/04/04 14:07:22;;;;;;;2.47;1.27;;;;;;;;;;4972288;28;20027;-71
2023/04/04 14:09:48;;;;;;;1.95;0.90;;;;;;;;;;4972264;28;20388;-74
2023/04/04 14:12:14;;;;;;;2.35;0.95;;;;;;;;;;4972682;28;20034;-74
2023/04/04 14:14:40;;;;;;;3.35;1.23;;;;;;;;;;4972262;28;20054;-74
2023/04/04 14:17:06;;;;;;;4.75;1.45;;;;;;;;;;4971221;28;20046;-73
2023/04/04 14:19:32;;;;;;;11.13;1.85;;;;;;;;;;4972346;28;20396;-73
2023/04/04 14:21:58;;;;;;;4.35;1.00;;;;;;;;;;4972465;28;20031;-74
2023/04/04 14:24:24;;;;;;;3.08;1.27;;;;;;;;;;4972348;28;20038;-74
2023/04/04 14:26:50;;;;;;;1.73;0.95;;;;;;;;;;4971984;28;20512;-73
2023/04/04 14:29:16;;;;;;;3.60;1.00;;;;;;;;;;4971142;28;20027;-74
2023/04/04 14:31:42;;;;;;;3.10;1.02;;;;;;;;;;4971584;28;20038;-75
2023/04/04 14:34:09;;;;;;;3.10;1.20;;;;;;;;;;4971707;28;20027;-74
2023/04/04 14:36:35;;;;;;;1.90;0.98;;;;;;;;;;4971721;28;20027;-74
2023/04/04 14:39:01;;;;;;;2.70;0.80;;;;;;;;;;4971358;28;20028;-73
2023/04/04 14:41:27;;;;;;;2.97;1.00;;;;;;;;;;4971345;28;20023;-73
2023/04/04 14:43:54;;;;;;;30.60;3.45;;;;;;;;;;4971625;28;20583;-74